Portada
METAR-TAF:

METAR-TAF

Aeropuertos :

Aeropuerto Internacional Julius Nyerere

Dar es Salaam, Tanzania

latitud: 06-52S, longitud: 039-12E, altitud: 55 m

Observación

El informe se hizo hace 54 minutos, a las 07:00 UTC
Viento 10 kt del sur
Temperatura 26°C
Humedad 79%
Presión 1022 hPa
Visibilidad 10 km o más
Cielo nuboso a una altura de 1200 ft

METAR: HTDA 210700Z 18010KT 9999 BKN012 26/22 Q1022 NOSIG

Hora: 10:54 (07:54 UTC)

Pronóstico

El informe se hizo hace 14 horas y 54 minutos, a las 17:00 UTC
Pronóstico válido del 20 a las 18 UTC al 21 a las 24 UTC
Viento 5 kt del sureste
Visibilidad 10 km o más
Escasas nubes a una altura de 1600 ft
Temporalmente
del 21 a las 03 UTC al 21 a las 05 UTC
Visibilidad: 7000 m
Niebla baja
Evolucionando progresivamente
del 21 a las 06 UTC al 21 a las 09 UTC
Viento 10 kt del sur-sureste
Cielo nuboso a una altura de 1800 ft

TAF: HTDA 201700Z 2018/2124 13005KT 9999 FEW016 TEMPO 2103/2105 7000 MIFG BECMG 2106/2109 16010KT BKN018

Observaciones y pronósticos meteorológicos de más de 4000 aeropuertos (mensajes METAR y TAF).

Los puntos amarillos y rojos representan las estaciones disponibles.

Ponga el ratón en el punto deseado para ver el nombre de la estación.

Haga clic para ver las observaciones y los pronósticos meteorológicos.

Para cambiar el mapa : haga clic en los botones verdes con una cruz de color negro para hacer un zoom, en el botón verde con un guión para alejar o en las flechas verdes para mapas adyacentes.


METAR-TAF: